createdAt,value
2019-03-29T00:01:59.850Z,-3.31
2019-03-29T00:04:31.094Z,-3.30
2019-03-29T00:07:02.442Z,-3.24
2019-03-29T00:09:33.544Z,-3.24
2019-03-29T00:12:05.214Z,-3.19
2019-03-29T00:14:36.645Z,-3.20
2019-03-29T00:17:08.017Z,-3.24
2019-03-29T00:19:39.433Z,-3.30
2019-03-29T00:22:10.665Z,-3.33
2019-03-29T00:24:41.929Z,-3.35
2019-03-29T00:27:13.209Z,-3.44
2019-03-29T00:29:44.479Z,-3.54
2019-03-29T00:32:15.645Z,-3.62
2019-03-29T00:34:47.028Z,-3.68
2019-03-29T00:37:18.376Z,-3.71
2019-03-29T00:39:50.059Z,-3.71
2019-03-29T00:42:21.350Z,-3.73
2019-03-29T00:44:52.924Z,-3.74
2019-03-29T00:47:24.549Z,-3.64
2019-03-29T00:49:55.917Z,-3.65
2019-03-29T00:52:27.227Z,-3.59
2019-03-29T00:54:58.496Z,-3.58
2019-03-29T00:57:30.301Z,-3.62
2019-03-29T01:00:02.374Z,-3.57
2019-03-29T01:02:34.843Z,-3.55
2019-03-29T01:05:07.220Z,-3.56
2019-03-29T01:07:39.602Z,-3.54
2019-03-29T01:10:10.968Z,-3.55
2019-03-29T01:12:42.285Z,-3.59
2019-03-29T01:15:13.602Z,-3.57
2019-03-29T01:17:45.765Z,-3.51
2019-03-29T01:20:17.337Z,-3.48
2019-03-29T01:22:48.587Z,-3.32
2019-03-29T01:25:20.118Z,-3.37
2019-03-29T01:27:51.446Z,-3.37
2019-03-29T01:30:23.042Z,-3.35
2019-03-29T01:32:54.761Z,-3.32
2019-03-29T01:35:26.149Z,-3.37
2019-03-29T01:37:57.493Z,-3.42
2019-03-29T01:40:28.776Z,-3.45
2019-03-29T01:42:59.985Z,-3.44
2019-03-29T01:45:31.343Z,-3.43
2019-03-29T01:48:02.635Z,-3.45
2019-03-29T01:50:34.942Z,-3.49
2019-03-29T01:53:06.559Z,-3.52
2019-03-29T01:55:37.888Z,-3.36
2019-03-29T01:58:09.241Z,-3.31
2019-03-29T02:00:40.567Z,-3.26
2019-03-29T02:03:13.413Z,-3.31
2019-03-29T02:05:44.689Z,-3.30
2019-03-29T02:08:15.996Z,-3.38
2019-03-29T02:10:47.384Z,-3.44
2019-03-29T02:13:18.765Z,-3.55
2019-03-29T02:15:50.117Z,-3.62
2019-03-29T02:18:21.337Z,-3.65
2019-03-29T02:20:52.677Z,-3.73
2019-03-29T02:23:23.956Z,-3.75
2019-03-29T02:25:55.393Z,-3.78
2019-03-29T02:28:26.608Z,-3.81
2019-03-29T02:30:59.640Z,-3.79
2019-03-29T02:33:30.975Z,-3.77
2019-03-29T02:36:04.372Z,-3.59
2019-03-29T02:38:53.522Z,-3.55
2019-03-29T02:41:08.797Z,-3.53
2019-03-29T02:43:40.062Z,-3.61
2019-03-29T02:46:11.348Z,-3.67
2019-03-29T02:48:44.548Z,-3.62
2019-03-29T02:51:15.831Z,-3.63
2019-03-29T02:53:47.101Z,-3.63
2019-03-29T02:56:18.471Z,-3.74
2019-03-29T02:58:49.742Z,-3.86
2019-03-29T03:01:21.850Z,-3.96
2019-03-29T03:03:53.052Z,-3.94
2019-03-29T03:06:24.345Z,-3.91
2019-03-29T03:09:12.258Z,-3.88
2019-03-29T03:11:29.671Z,-3.80
2019-03-29T03:14:01.046Z,-3.73
2019-03-29T03:16:32.446Z,-3.69
2019-03-29T03:19:03.945Z,-3.64
2019-03-29T03:21:35.429Z,-3.58
2019-03-29T03:24:06.659Z,-3.61
2019-03-29T03:26:37.950Z,-3.68
2019-03-29T03:29:09.129Z,-3.74
2019-03-29T03:31:40.432Z,-3.75
2019-03-29T03:34:11.790Z,-3.75
2019-03-29T03:36:43.135Z,-3.75
2019-03-29T03:39:30.767Z,-3.75
2019-03-29T03:41:49.060Z,-3.75
2019-03-29T03:44:20.293Z,-3.78
2019-03-29T03:46:51.654Z,-3.77
2019-03-29T03:49:23.054Z,-3.70
2019-03-29T03:51:54.334Z,-3.80
2019-03-29T03:54:25.623Z,-3.88
2019-03-29T03:56:56.804Z,-3.88
2019-03-29T03:59:28.072Z,-3.90
2019-03-29T04:01:59.392Z,-3.91
2019-03-29T04:04:30.751Z,-3.89
2019-03-29T04:07:02.156Z,-3.86
2019-03-29T04:09:48.465Z,-3.84
2019-03-29T04:12:06.321Z,-3.78
2019-03-29T04:14:37.601Z,-3.69
2019-03-29T04:17:08.768Z,-3.60
2019-03-29T04:19:40.165Z,-3.50
2019-03-29T04:22:11.376Z,-3.39
2019-03-29T04:24:42.729Z,-3.23
2019-03-29T04:27:14.077Z,-3.13
2019-03-29T04:29:45.294Z,-3.04
2019-03-29T04:32:16.571Z,-2.98
2019-03-29T04:34:47.837Z,-2.85
2019-03-29T04:37:19.218Z,-2.71
2019-03-29T04:40:06.508Z,-2.52
2019-03-29T04:42:23.559Z,-2.33
2019-03-29T04:44:54.931Z,-2.18
2019-03-29T04:47:26.302Z,-2.06
2019-03-29T04:49:57.671Z,-1.90
2019-03-29T04:52:28.977Z,-1.77
2019-03-29T04:55:00.421Z,-1.62
2019-03-29T04:57:31.891Z,-1.48
2019-03-29T05:00:03.317Z,-1.35
2019-03-29T05:02:35.763Z,-1.22
2019-03-29T05:05:07.649Z,-1.16
2019-03-29T05:07:38.937Z,-1.02
2019-03-29T05:10:21.291Z,-0.77
2019-03-29T05:12:43.266Z,-0.63
2019-03-29T05:15:14.655Z,-0.57
2019-03-29T05:17:45.890Z,-0.53
2019-03-29T05:20:18.229Z,-0.38
2019-03-29T05:22:49.709Z,-0.18
2019-03-29T05:25:21.634Z,0.12
2019-03-29T05:27:53.739Z,0.28
2019-03-29T05:30:24.965Z,0.26
2019-03-29T05:32:56.350Z,0.35
2019-03-29T05:35:27.546Z,0.46
2019-03-29T05:37:58.803Z,0.65
2019-03-29T05:40:35.237Z,0.73
2019-03-29T05:43:02.845Z,0.82
2019-03-29T05:45:34.185Z,0.94
2019-03-29T05:48:05.546Z,1.03
2019-03-29T05:50:37.027Z,1.20
2019-03-29T05:53:08.348Z,1.31
2019-03-29T05:55:39.727Z,1.49
2019-03-29T05:58:10.869Z,1.62
2019-03-29T06:00:42.139Z,1.70
2019-03-29T06:03:13.462Z,1.73
2019-03-29T06:05:44.806Z,1.77
2019-03-29T06:08:16.169Z,1.89
2019-03-29T06:10:49.393Z,1.98
2019-03-29T06:13:20.466Z,2.10
2019-03-29T06:15:53.233Z,2.14
2019-03-29T06:18:26.177Z,2.24
2019-03-29T06:20:57.410Z,2.41
2019-03-29T06:23:28.737Z,2.65
2019-03-29T06:25:59.945Z,2.93
2019-03-29T06:28:31.208Z,3.05
2019-03-29T06:31:02.476Z,3.07
2019-03-29T06:33:33.849Z,3.14
2019-03-29T06:36:05.498Z,3.29
2019-03-29T06:38:36.843Z,3.39
2019-03-29T06:41:08.115Z,3.37
2019-03-29T06:43:39.253Z,3.56
2019-03-29T06:46:10.510Z,3.69
2019-03-29T06:48:41.873Z,3.73
2019-03-29T06:51:13.171Z,3.84
2019-03-29T06:53:44.437Z,4.01
2019-03-29T06:56:15.786Z,3.97
2019-03-29T06:58:47.059Z,3.95
2019-03-29T07:01:18.312Z,4.08
2019-03-29T07:03:49.503Z,4.33
2019-03-29T07:06:20.838Z,4.56
2019-03-29T07:08:52.153Z,4.83
2019-03-29T07:11:23.381Z,4.97
2019-03-29T07:13:57.890Z,5.08
2019-03-29T07:16:27.692Z,5.17
2019-03-29T07:18:59.039Z,5.17
2019-03-29T07:21:30.261Z,5.26
2019-03-29T07:24:01.600Z,5.47
2019-03-29T07:26:35.811Z,5.59
2019-03-29T07:29:06.988Z,5.39
2019-03-29T07:31:38.328Z,5.61
2019-03-29T07:34:09.514Z,5.68
2019-03-29T07:36:42.197Z,5.84
2019-03-29T07:39:13.425Z,5.88
2019-03-29T07:41:44.781Z,5.99
2019-03-29T07:44:16.128Z,6.01
2019-03-29T07:46:47.360Z,6.02
2019-03-29T07:49:18.635Z,6.05
2019-03-29T07:51:49.996Z,6.07
2019-03-29T07:54:21.412Z,6.12
2019-03-29T07:56:53.559Z,6.23
2019-03-29T07:59:24.834Z,6.18
2019-03-29T08:01:56.132Z,6.34
2019-03-29T08:04:27.537Z,6.34
2019-03-29T08:06:59.801Z,6.39
2019-03-29T08:09:31.102Z,6.44
2019-03-29T08:12:02.279Z,6.55
2019-03-29T08:14:33.602Z,6.50
2019-03-29T08:17:04.895Z,6.56
2019-03-29T08:19:37.307Z,6.61
2019-03-29T08:22:09.387Z,6.58
2019-03-29T08:24:40.516Z,6.70
2019-03-29T08:27:11.767Z,6.80
2019-03-29T08:29:43.160Z,6.90
2019-03-29T08:32:14.559Z,7.03
2019-03-29T08:34:45.837Z,7.22
2019-03-29T08:37:17.915Z,7.31
2019-03-29T08:39:49.349Z,7.39
2019-03-29T08:42:20.835Z,7.73
2019-03-29T08:44:52.208Z,8.35
2019-03-29T08:47:23.727Z,9.14
2019-03-29T08:49:55.066Z,10.00
2019-03-29T08:52:27.324Z,11.14
2019-03-29T08:54:58.752Z,11.27
2019-03-29T08:57:30.062Z,11.61
2019-03-29T09:00:01.355Z,12.21
2019-03-29T09:02:33.678Z,12.59
2019-03-29T09:05:05.736Z,11.74
2019-03-29T09:07:44.523Z,11.89
2019-03-29T09:10:18.288Z,12.19
2019-03-29T09:12:49.718Z,12.46
2019-03-29T09:15:21.066Z,12.06
2019-03-29T09:17:52.415Z,12.82
2019-03-29T09:20:23.710Z,12.99
2019-03-29T09:22:55.032Z,12.78
2019-03-29T09:25:26.377Z,12.52
2019-03-29T09:27:58.682Z,12.36
2019-03-29T09:30:31.232Z,13.74
2019-03-29T09:33:02.548Z,13.56
2019-03-29T09:35:35.533Z,13.39
2019-03-29T09:38:06.990Z,14.00
2019-03-29T09:40:38.403Z,13.16
2019-03-29T09:43:09.819Z,13.63
2019-03-29T09:45:42.285Z,14.00
2019-03-29T09:48:15.939Z,14.00
2019-03-29T09:50:50.692Z,13.91
2019-03-29T09:53:21.608Z,14.04
2019-03-29T09:55:53.495Z,14.21
2019-03-29T09:58:24.980Z,14.01
2019-03-29T10:00:56.274Z,13.90
2019-03-29T10:03:27.658Z,12.91
2019-03-29T10:05:59.927Z,12.44
2019-03-29T10:08:31.064Z,12.44
2019-03-29T10:11:02.442Z,12.47
2019-03-29T10:13:33.605Z,13.52
2019-03-29T10:16:04.949Z,13.76
2019-03-29T10:18:36.284Z,13.52
2019-03-29T10:21:08.659Z,13.52
2019-03-29T10:23:39.844Z,13.42
2019-03-29T10:26:11.003Z,13.42
2019-03-29T10:28:42.239Z,13.35
2019-03-29T10:31:13.452Z,14.02
2019-03-29T10:33:44.657Z,14.40
2019-03-29T10:36:17.016Z,14.40
2019-03-29T10:38:48.362Z,15.16
2019-03-29T10:41:22.782Z,14.29
2019-03-29T10:43:52.263Z,14.99
2019-03-29T10:46:23.360Z,14.66
2019-03-29T10:48:54.461Z,14.36
2019-03-29T10:51:25.774Z,14.12
2019-03-29T10:53:56.928Z,13.98
2019-03-29T10:56:34.346Z,14.70
2019-03-29T10:59:02.567Z,14.57
2019-03-29T11:01:34.210Z,14.15
2019-03-29T11:04:05.502Z,14.08
2019-03-29T11:06:36.670Z,14.03
2019-03-29T11:09:10.835Z,14.34
2019-03-29T11:11:43.959Z,13.59
2019-03-29T11:14:15.389Z,12.40
2019-03-29T11:16:48.173Z,12.40
2019-03-29T11:19:19.817Z,13.66
2019-03-29T11:21:51.130Z,14.87
2019-03-29T11:24:22.543Z,16.05
2019-03-29T11:26:55.566Z,16.99
2019-03-29T11:29:27.053Z,16.90
2019-03-29T11:31:58.259Z,15.88
2019-03-29T11:34:31.095Z,16.64
2019-03-29T11:37:03.516Z,16.88
2019-03-29T11:39:36.431Z,16.05
2019-03-29T11:42:07.977Z,15.62
2019-03-29T11:44:39.447Z,14.93
2019-03-29T11:47:12.170Z,15.31
2019-03-29T11:49:43.626Z,15.66
2019-03-29T11:52:14.906Z,15.69
2019-03-29T11:54:46.287Z,15.42
2019-03-29T11:57:17.622Z,16.16
2019-03-29T11:59:49.002Z,15.40
2019-03-29T12:02:31.211Z,15.20
2019-03-29T12:04:53.854Z,15.82
2019-03-29T12:07:25.333Z,16.53
2019-03-29T12:09:56.669Z,16.94
2019-03-29T12:12:28.029Z,16.80
2019-03-29T12:15:00.449Z,15.90
2019-03-29T12:17:33.893Z,15.39
2019-03-29T12:20:07.130Z,15.37
2019-03-29T12:22:38.437Z,14.71
2019-03-29T12:25:10.172Z,14.92
2019-03-29T12:27:41.368Z,14.60
2019-03-29T12:30:23.708Z,14.20
2019-03-29T12:32:46.994Z,13.97
2019-03-29T12:35:18.344Z,14.33
2019-03-29T12:37:50.205Z,13.87
2019-03-29T12:40:22.293Z,13.45
2019-03-29T12:42:53.790Z,13.37
2019-03-29T12:45:24.922Z,13.59
2019-03-29T12:47:56.474Z,13.68
2019-03-29T12:50:27.789Z,13.09
2019-03-29T12:52:59.158Z,12.88
2019-03-29T12:55:30.476Z,13.06
2019-03-29T12:58:01.691Z,12.93
2019-03-29T13:00:32.874Z,13.17
2019-03-29T13:03:04.074Z,13.50
2019-03-29T13:05:35.373Z,14.13
2019-03-29T13:08:08.136Z,13.88
2019-03-29T13:10:42.366Z,13.39
2019-03-29T13:13:14.063Z,13.23
2019-03-29T13:15:45.318Z,13.41
2019-03-29T13:18:16.723Z,13.67
2019-03-29T13:20:47.951Z,13.78
2019-03-29T13:23:19.256Z,13.46
2019-03-29T13:25:51.802Z,13.36
2019-03-29T13:28:23.132Z,14.06
2019-03-29T13:30:54.414Z,14.15
2019-03-29T13:33:25.863Z,14.83
2019-03-29T13:35:59.928Z,15.00
2019-03-29T13:38:31.184Z,15.10
2019-03-29T13:41:02.471Z,15.54
2019-03-29T13:43:33.754Z,15.94
2019-03-29T13:46:05.154Z,15.80
2019-03-29T13:48:36.422Z,15.89
2019-03-29T13:51:08.679Z,15.45
2019-03-29T13:53:39.983Z,15.93
2019-03-29T13:56:11.281Z,15.93
2019-03-29T13:58:42.415Z,16.33
2019-03-29T14:01:14.680Z,16.01
2019-03-29T14:03:45.835Z,16.35
2019-03-29T14:06:19.448Z,16.13
2019-03-29T14:08:50.657Z,15.61
2019-03-29T14:11:22.198Z,16.10
2019-03-29T14:13:53.498Z,16.25
2019-03-29T14:16:24.720Z,15.80
2019-03-29T14:18:56.058Z,15.45
2019-03-29T14:21:27.298Z,15.53
2019-03-29T14:23:58.605Z,13.78
2019-03-29T14:26:29.778Z,13.27
2019-03-29T14:29:02.323Z,13.63
2019-03-29T14:31:33.508Z,13.00
2019-03-29T14:34:05.804Z,13.28
2019-03-29T14:36:38.253Z,13.13
2019-03-29T14:39:09.422Z,12.81
2019-03-29T14:41:41.895Z,12.99
2019-03-29T14:44:13.202Z,13.75
2019-03-29T14:46:44.453Z,13.84
2019-03-29T14:49:15.861Z,13.52
2019-03-29T14:51:47.521Z,13.13
2019-03-29T14:54:18.895Z,12.84
2019-03-29T14:56:50.098Z,12.85
2019-03-29T14:59:21.317Z,12.47
2019-03-29T15:01:52.523Z,12.72
2019-03-29T15:04:23.924Z,12.85
2019-03-29T15:06:55.106Z,12.24
2019-03-29T15:09:28.466Z,12.34
2019-03-29T15:11:59.666Z,11.77
2019-03-29T15:14:32.585Z,11.25
2019-03-29T15:17:04.123Z,10.63
2019-03-29T15:19:35.321Z,10.35
2019-03-29T15:22:07.619Z,9.86
2019-03-29T15:24:38.952Z,9.74
2019-03-29T15:27:10.214Z,9.45
2019-03-29T15:29:41.540Z,9.29
2019-03-29T15:32:12.749Z,9.07
2019-03-29T15:34:44.020Z,8.90
2019-03-29T15:37:15.411Z,8.73
2019-03-29T15:39:46.768Z,8.64
2019-03-29T15:42:20.408Z,8.53
2019-03-29T15:44:50.947Z,8.43
2019-03-29T15:47:22.332Z,8.21
2019-03-29T15:49:56.334Z,7.95
